Repülésmeteorológia

METAR


Utolsó módosítás időpontja: 2024-07-22 04:50:00
289
SAHU41 HASM 220500
METAR LHSM 220445Z AUTO VRB03KT 9000 NCD 19/19 Q1011

TAF


Utolsó módosítás időpontja: 2024-07-22 02:25:00
283
FCHU99 LHSM 220200
TAF LHSM 220200Z NIL